createdAt,value
2022-09-20T00:01:27.121Z,1.30
2022-09-20T00:03:57.146Z,1.10
2022-09-20T00:06:27.178Z,1.43
2022-09-20T00:08:54.425Z,1.33
2022-09-20T00:11:24.723Z,1.27
2022-09-20T00:13:54.794Z,1.10
2022-09-20T00:16:25.139Z,1.13
2022-09-20T00:18:54.327Z,1.33
2022-09-20T00:21:27.086Z,1.20
2022-09-20T00:23:55.005Z,1.57
2022-09-20T00:26:21.889Z,1.10
2022-09-20T00:28:48.745Z,1.23
2022-09-20T00:31:15.943Z,1.07
2022-09-20T00:34:01.422Z,1.13
2022-09-20T00:36:28.626Z,1.00
2022-09-20T00:39:00.986Z,1.30
2022-09-20T00:41:28.771Z,1.23
2022-09-20T00:43:55.866Z,1.50
2022-09-20T00:46:43.516Z,1.50
2022-09-20T00:49:22.568Z,1.33
2022-09-20T00:51:55.692Z,1.30
2022-09-20T00:54:25.546Z,1.40
2022-09-20T00:56:52.597Z,1.20
2022-09-20T00:59:25.599Z,1.17
2022-09-20T01:01:56.687Z,1.30
2022-09-20T01:04:27.508Z,1.10
2022-09-20T01:07:01.136Z,1.40
2022-09-20T01:09:28.184Z,1.20
2022-09-20T01:11:57.752Z,1.37
2022-09-20T01:14:26.398Z,1.30
2022-09-20T01:16:56.237Z,1.20
2022-09-20T01:19:40.576Z,1.50
2022-09-20T01:22:21.112Z,1.50
2022-09-20T01:24:59.992Z,1.20
2022-09-20T01:27:44.949Z,1.40
2022-09-20T01:30:24.376Z,1.43
2022-09-20T01:33:03.331Z,1.20
2022-09-20T01:35:34.311Z,1.27
2022-09-20T01:38:28.018Z,1.40
2022-09-20T01:41:06.820Z,1.13
2022-09-20T01:43:53.203Z,1.03
2022-09-20T01:46:20.076Z,1.27
2022-09-20T01:48:50.095Z,1.90
2022-09-20T01:51:36.195Z,0.97
2022-09-20T01:54:12.072Z,1.97
2022-09-20T01:57:04.874Z,1.07
2022-09-20T01:59:53.544Z,1.10
2022-09-20T02:02:29.349Z,1.20
2022-09-20T02:05:17.427Z,1.30
2022-09-20T02:07:55.588Z,1.30
2022-09-20T02:10:47.337Z,1.27
2022-09-20T02:13:29.646Z,1.30
2022-09-20T02:16:21.573Z,1.17
2022-09-20T02:19:32.949Z,1.60
2022-09-20T02:22:27.632Z,1.20
2022-09-20T02:24:57.469Z,1.30
2022-09-20T02:27:26.603Z,1.07
2022-09-20T02:30:01.162Z,1.00
2022-09-20T02:32:46.647Z,1.20
2022-09-20T02:36:01.553Z,1.43
2022-09-20T02:38:40.140Z,1.00
2022-09-20T02:41:51.741Z,1.10
2022-09-20T02:44:57.366Z,1.03
2022-09-20T02:47:57.135Z,1.10
2022-09-20T02:50:47.529Z,1.07
2022-09-20T02:53:23.954Z,1.13
2022-09-20T02:56:18.846Z,1.10
2022-09-20T02:59:00.318Z,0.93
2022-09-20T03:02:00.515Z,1.50
2022-09-20T03:04:45.865Z,1.30
2022-09-20T03:07:37.505Z,1.57
2022-09-20T03:10:14.106Z,1.10
2022-09-20T03:12:53.079Z,1.00
2022-09-20T03:15:41.822Z,0.97
2022-09-20T03:18:13.955Z,1.53
2022-09-20T03:21:02.451Z,1.40
2022-09-20T03:23:46.531Z,1.17
2022-09-20T03:26:21.302Z,1.80
2022-09-20T03:29:20.405Z,1.57
2022-09-20T03:32:01.990Z,1.50
2022-09-20T03:34:50.712Z,1.67
2022-09-20T03:37:56.584Z,1.60
2022-09-20T03:40:29.599Z,1.17
2022-09-20T03:43:10.084Z,1.40
2022-09-20T03:45:46.432Z,1.50
2022-09-20T03:48:51.792Z,1.90
2022-09-20T03:51:33.744Z,1.60
2022-09-20T03:54:15.956Z,1.23
2022-09-20T03:57:34.591Z,1.57
2022-09-20T04:00:22.733Z,1.80
2022-09-20T04:03:07.866Z,1.70
2022-09-20T04:05:40.557Z,1.27
2022-09-20T04:08:16.262Z,1.43
2022-09-20T04:10:42.932Z,1.80
2022-09-20T04:13:34.999Z,1.50
2022-09-20T04:16:01.693Z,1.63
2022-09-20T04:18:40.158Z,1.53
2022-09-20T04:21:15.632Z,1.60
2022-09-20T04:24:04.154Z,1.53
2022-09-20T04:26:36.187Z,1.40
2022-09-20T04:29:24.629Z,1.47
2022-09-20T04:32:13.286Z,1.50
2022-09-20T04:35:14.867Z,1.20
2022-09-20T04:37:44.669Z,1.57
2022-09-20T04:40:33.150Z,1.50
2022-09-20T04:43:18.609Z,1.83
2022-09-20T04:46:00.761Z,1.60
2022-09-20T04:48:33.455Z,1.87
2022-09-20T04:51:31.762Z,1.50
2022-09-20T04:54:22.554Z,1.70
2022-09-20T04:57:34.478Z,1.80
2022-09-20T05:00:12.734Z,1.80
2022-09-20T05:03:16.945Z,1.63
2022-09-20T05:06:23.682Z,1.57
2022-09-20T05:09:33.550Z,1.63
2022-09-20T05:12:39.414Z,1.50
2022-09-20T05:15:36.434Z,1.83
2022-09-20T05:18:46.144Z,1.57
2022-09-20T05:21:50.612Z,1.43
2022-09-20T05:24:42.685Z,1.67
2022-09-20T05:27:12.556Z,1.67
2022-09-20T05:30:04.302Z,1.80
2022-09-20T05:32:45.311Z,1.43
2022-09-20T05:35:26.547Z,1.80
2022-09-20T05:38:02.364Z,1.73
2022-09-20T05:40:41.152Z,2.00
2022-09-20T05:43:20.281Z,1.80
2022-09-20T05:46:14.929Z,1.47
2022-09-20T05:49:13.082Z,1.57
2022-09-20T05:51:58.657Z,1.80
2022-09-20T05:54:35.404Z,1.40
2022-09-20T05:57:36.124Z,1.53
2022-09-20T06:00:27.849Z,1.60
2022-09-20T06:03:14.082Z,1.43
2022-09-20T06:05:52.949Z,2.23
2022-09-20T06:08:37.942Z,1.47
2022-09-20T06:11:27.061Z,1.63
2022-09-20T06:14:03.749Z,1.87
2022-09-20T06:17:02.850Z,1.60
2022-09-20T06:19:39.197Z,1.30
2022-09-20T06:22:14.039Z,1.40
2022-09-20T06:25:05.785Z,1.53
2022-09-20T06:27:47.310Z,1.37
2022-09-20T06:30:25.004Z,1.03
2022-09-20T06:32:57.514Z,1.50
2022-09-20T06:35:29.044Z,1.63
2022-09-20T06:38:34.368Z,1.90
2022-09-20T06:41:19.629Z,1.13
2022-09-20T06:43:48.538Z,0.90
2022-09-20T06:46:16.204Z,0.87
2022-09-20T06:48:43.030Z,1.07
2022-09-20T06:51:10.193Z,1.17
2022-09-20T06:53:40.306Z,1.20
2022-09-20T06:56:18.249Z,1.10
2022-09-20T06:58:45.286Z,1.20
2022-09-20T07:01:13.778Z,1.03
2022-09-20T07:03:41.701Z,0.93
2022-09-20T07:06:09.453Z,1.20
2022-09-20T07:08:36.479Z,1.10
2022-09-20T07:11:10.282Z,1.20
2022-09-20T07:13:37.085Z,1.00
2022-09-20T07:16:06.541Z,1.17
2022-09-20T07:18:34.801Z,1.23
2022-09-20T07:21:02.122Z,1.20
2022-09-20T07:23:30.189Z,0.90
2022-09-20T07:26:01.195Z,1.40
2022-09-20T07:28:29.594Z,1.27
2022-09-20T07:30:56.467Z,1.20
2022-09-20T07:33:25.036Z,1.03
2022-09-20T07:35:56.940Z,1.20
2022-09-20T07:38:24.388Z,1.43
2022-09-20T07:41:02.380Z,1.90
2022-09-20T07:43:30.552Z,2.10
2022-09-20T07:45:59.427Z,2.45
2022-09-20T07:48:30.229Z,2.30
2022-09-20T07:51:04.754Z,3.92
2022-09-20T07:53:35.109Z,2.90
2022-09-20T07:56:28.354Z,2.47
2022-09-20T07:58:55.293Z,2.25
2022-09-20T08:01:23.542Z,2.10
2022-09-20T08:03:51.848Z,2.17
2022-09-20T08:06:21.237Z,1.50
2022-09-20T08:08:48.374Z,1.40
2022-09-20T08:11:20.678Z,1.45
2022-09-20T08:14:07.080Z,1.58
2022-09-20T08:16:41.952Z,1.67
2022-09-20T08:19:12.744Z,1.80
2022-09-20T08:21:39.837Z,1.90
2022-09-20T08:24:06.839Z,1.80
2022-09-20T08:26:35.807Z,1.60
2022-09-20T08:29:05.800Z,2.00
2022-09-20T08:31:36.958Z,1.17
2022-09-20T08:34:06.878Z,1.02
2022-09-20T08:36:36.943Z,1.48
2022-09-20T08:42:02.189Z,1.17
2022-09-20T08:44:35.641Z,1.38
2022-09-20T08:47:09.876Z,1.13
2022-09-20T08:49:38.083Z,1.30
2022-09-20T08:52:10.284Z,0.82
2022-09-20T08:54:37.502Z,0.65
2022-09-20T08:57:12.939Z,0.80
2022-09-20T08:59:40.856Z,0.75
2022-09-20T09:02:20.223Z,0.80
2022-09-20T09:04:49.202Z,0.60
2022-09-20T09:07:20.964Z,0.80
2022-09-20T09:09:51.305Z,0.70
2022-09-20T09:12:23.933Z,0.60
2022-09-20T09:14:59.328Z,0.80
2022-09-20T09:17:30.256Z,0.50
2022-09-20T09:19:58.767Z,0.98
2022-09-20T09:22:35.259Z,0.60
2022-09-20T09:25:17.270Z,0.93
2022-09-20T09:28:03.866Z,0.63
2022-09-20T09:30:40.461Z,0.60
2022-09-20T09:33:30.375Z,0.65
2022-09-20T09:36:06.892Z,0.98
2022-09-20T09:38:40.368Z,0.80
2022-09-20T09:41:27.132Z,0.68
2022-09-20T09:44:09.673Z,0.55
2022-09-20T09:46:40.080Z,0.75
2022-09-20T09:49:36.129Z,0.80
2022-09-20T09:52:13.069Z,0.60
2022-09-20T09:55:04.664Z,0.80
2022-09-20T09:58:06.625Z,0.75
2022-09-20T10:00:35.768Z,0.45
2022-09-20T10:03:20.728Z,0.57
2022-09-20T10:06:23.942Z,0.65
2022-09-20T10:09:02.247Z,0.75
2022-09-20T10:12:00.213Z,0.90
2022-09-20T10:14:38.351Z,0.65
2022-09-20T10:17:34.245Z,1.00
2022-09-20T10:20:11.171Z,0.85
2022-09-20T10:25:57.169Z,0.98
2022-09-20T10:28:48.633Z,0.88
2022-09-20T10:31:30.998Z,1.00
2022-09-20T10:34:35.605Z,0.75
2022-09-20T10:37:02.524Z,0.70
2022-09-20T10:39:36.415Z,0.95
2022-09-20T10:42:40.693Z,0.93
2022-09-20T10:46:08.751Z,0.82
2022-09-20T10:48:32.880Z,1.42
2022-09-20T10:51:23.283Z,0.70
2022-09-20T10:54:01.402Z,1.45
2022-09-20T10:56:36.896Z,0.85
2022-09-20T10:59:36.044Z,1.10
2022-09-20T11:02:15.159Z,0.73
2022-09-20T11:04:56.482Z,0.88
2022-09-20T11:07:23.245Z,1.00
2022-09-20T11:09:57.513Z,0.55
2022-09-20T11:12:39.461Z,0.57
2022-09-20T11:15:18.060Z,1.02
2022-09-20T11:18:10.360Z,0.95
2022-09-20T11:20:54.396Z,0.95
2022-09-20T11:23:32.464Z,0.90
2022-09-20T11:26:10.312Z,1.10
2022-09-20T11:28:40.409Z,1.15
2022-09-20T11:31:27.831Z,0.95
2022-09-20T11:34:01.808Z,1.10
2022-09-20T11:36:53.932Z,0.90
2022-09-20T11:40:00.287Z,0.68
2022-09-20T11:42:36.802Z,0.90
2022-09-20T11:45:04.136Z,0.77
2022-09-20T11:47:54.359Z,0.52
2022-09-20T11:50:49.513Z,0.70
2022-09-20T11:53:36.937Z,0.80
2022-09-20T11:56:12.887Z,0.93
2022-09-20T11:58:55.210Z,0.90
2022-09-20T12:01:32.321Z,0.93
2022-09-20T12:04:30.537Z,0.90
2022-09-20T12:07:04.664Z,0.70
2022-09-20T12:09:38.441Z,0.60
2022-09-20T12:12:16.781Z,0.50
2022-09-20T12:14:54.696Z,0.50
2022-09-20T12:17:46.004Z,0.43
2022-09-20T12:20:45.023Z,0.52
2022-09-20T12:23:42.474Z,0.70
2022-09-20T12:26:21.717Z,0.60
2022-09-20T12:28:50.763Z,0.47
2022-09-20T12:31:29.856Z,0.50
2022-09-20T12:34:11.875Z,0.80
2022-09-20T12:37:05.011Z,0.70
2022-09-20T12:39:34.533Z,0.75
2022-09-20T12:42:01.239Z,0.70
2022-09-20T12:44:39.316Z,0.57
2022-09-20T12:47:12.047Z,0.68
2022-09-20T12:50:06.642Z,0.60
2022-09-20T12:52:57.980Z,0.95
2022-09-20T12:55:27.991Z,0.63
2022-09-20T12:58:04.934Z,0.90
2022-09-20T13:00:59.575Z,0.60
2022-09-20T13:03:37.049Z,0.57
2022-09-20T13:06:06.914Z,0.60
2022-09-20T13:08:39.998Z,0.80
2022-09-20T13:11:06.902Z,0.68
2022-09-20T13:13:36.321Z,0.57
2022-09-20T13:16:06.451Z,0.90
2022-09-20T13:18:36.222Z,0.68
2022-09-20T13:21:07.194Z,0.47
2022-09-20T13:23:45.572Z,0.68
2022-09-20T13:26:13.795Z,0.60
2022-09-20T13:28:51.274Z,0.70
2022-09-20T13:31:23.449Z,0.60
2022-09-20T13:33:51.139Z,0.70
2022-09-20T13:36:29.775Z,0.63
2022-09-20T13:38:58.296Z,0.80
2022-09-20T13:41:29.242Z,0.90
2022-09-20T13:43:57.098Z,1.40
2022-09-20T13:46:30.312Z,0.95
2022-09-20T13:49:14.862Z,0.75
2022-09-20T13:51:41.614Z,0.85
2022-09-20T13:54:37.886Z,0.80
2022-09-20T13:57:13.452Z,1.00
2022-09-20T13:59:45.395Z,0.98
2022-09-20T14:02:26.659Z,0.90
2022-09-20T14:04:56.112Z,1.60
2022-09-20T14:07:26.159Z,0.73
2022-09-20T14:09:54.132Z,1.17
2022-09-20T14:12:23.950Z,0.90
2022-09-20T14:14:51.748Z,0.70
2022-09-20T14:17:21.874Z,0.68
2022-09-20T14:19:51.810Z,0.57
2022-09-20T14:22:28.671Z,0.90
2022-09-20T14:25:19.313Z,0.80
2022-09-20T14:27:46.212Z,0.50
2022-09-20T14:30:36.438Z,0.40
2022-09-20T14:33:07.285Z,0.50
2022-09-20T14:35:34.305Z,0.65
2022-09-20T14:38:08.498Z,0.55
2022-09-20T14:40:44.671Z,0.70
2022-09-20T14:43:33.016Z,0.68
2022-09-20T14:46:04.629Z,0.90
2022-09-20T14:48:35.520Z,0.60
2022-09-20T14:51:28.703Z,1.00
2022-09-20T14:54:04.617Z,0.60
2022-09-20T14:56:37.914Z,1.23
2022-09-20T14:59:20.775Z,0.65
2022-09-20T15:02:01.325Z,0.60
2022-09-20T15:04:29.388Z,0.70
2022-09-20T15:07:01.048Z,0.60
2022-09-20T15:09:28.093Z,0.40
2022-09-20T15:12:03.272Z,0.32
2022-09-20T15:14:33.832Z,0.43
2022-09-20T15:17:04.295Z,0.55
2022-09-20T15:19:31.176Z,0.40
2022-09-20T15:21:58.177Z,0.60
2022-09-20T15:24:25.399Z,0.50
2022-09-20T15:26:52.280Z,0.50
2022-09-20T15:29:19.281Z,0.38
2022-09-20T15:31:48.656Z,0.73
2022-09-20T15:34:16.173Z,0.50
2022-09-20T15:36:43.401Z,0.80
2022-09-20T15:39:11.587Z,0.93
2022-09-20T15:41:38.814Z,0.98
2022-09-20T15:44:06.635Z,0.53
2022-09-20T15:46:34.348Z,0.67
2022-09-20T15:49:02.874Z,0.70
2022-09-20T15:51:30.531Z,0.70
2022-09-20T15:54:02.789Z,0.52
2022-09-20T15:56:32.294Z,0.97
2022-09-20T15:59:05.839Z,0.70
2022-09-20T16:01:40.857Z,0.90
2022-09-20T16:04:12.410Z,0.80
2022-09-20T16:06:41.479Z,0.90
2022-09-20T16:09:09.249Z,0.70
2022-09-20T16:11:36.959Z,0.70
2022-09-20T16:14:04.068Z,0.87
2022-09-20T16:16:37.418Z,1.07
2022-09-20T16:19:21.875Z,1.00
2022-09-20T16:21:59.098Z,0.97
2022-09-20T16:24:31.793Z,0.90
2022-09-20T16:26:59.082Z,0.88
2022-09-20T16:29:26.599Z,0.73
2022-09-20T16:31:54.474Z,0.77
2022-09-20T16:34:23.088Z,1.00
2022-09-20T16:36:53.156Z,0.70
2022-09-20T16:39:21.582Z,0.70
2022-09-20T16:41:49.268Z,0.60
2022-09-20T16:44:16.264Z,0.60
2022-09-20T16:46:45.291Z,0.47
2022-09-20T16:49:13.512Z,0.67
2022-09-20T16:51:42.268Z,0.70
2022-09-20T16:54:14.449Z,0.70
2022-09-20T16:56:43.568Z,0.77
2022-09-20T16:59:11.126Z,0.53
2022-09-20T17:01:39.728Z,0.50
2022-09-20T17:04:07.573Z,0.80
2022-09-20T17:06:39.104Z,0.73
2022-09-20T17:09:07.645Z,1.00
2022-09-20T17:11:37.813Z,0.57
2022-09-20T17:14:05.521Z,0.60
2022-09-20T17:16:34.886Z,0.60
2022-09-20T17:19:07.309Z,1.23
2022-09-20T17:21:37.075Z,1.00
2022-09-20T17:24:05.999Z,0.90
2022-09-20T17:26:38.791Z,1.10
2022-09-20T17:29:09.481Z,1.07
2022-09-20T17:31:41.782Z,1.00
2022-09-20T17:34:11.084Z,1.00
2022-09-20T17:36:42.911Z,1.03
2022-09-20T17:39:12.965Z,0.93
2022-09-20T17:41:41.702Z,0.70
2022-09-20T17:44:10.033Z,0.90
2022-09-20T17:46:38.892Z,1.00
2022-09-20T17:49:18.147Z,0.70
2022-09-20T17:51:48.150Z,0.70
2022-09-20T17:54:19.190Z,1.07
2022-09-20T17:56:48.550Z,0.83
2022-09-20T17:59:16.732Z,0.80
2022-09-20T18:01:45.570Z,1.10
2022-09-20T18:04:13.457Z,0.90
2022-09-20T18:06:49.514Z,0.80
2022-09-20T18:09:19.319Z,1.00
2022-09-20T18:11:49.702Z,0.90
2022-09-20T18:14:19.128Z,0.83
2022-09-20T18:16:47.143Z,0.90
2022-09-20T18:19:16.031Z,0.90
2022-09-20T18:21:43.922Z,1.33
2022-09-20T18:24:12.072Z,1.00
2022-09-20T18:26:39.821Z,1.07
2022-09-20T18:29:12.459Z,1.17
2022-09-20T18:31:46.166Z,0.80
2022-09-20T18:34:18.013Z,1.03
2022-09-20T18:36:48.374Z,0.83
2022-09-20T18:39:15.300Z,0.97
2022-09-20T18:41:44.082Z,0.90
2022-09-20T18:44:14.476Z,1.30
2022-09-20T18:46:41.731Z,1.07
2022-09-20T18:49:13.442Z,1.03
2022-09-20T18:51:40.765Z,1.43
2022-09-20T18:54:11.278Z,0.70
2022-09-20T18:56:43.362Z,1.20
2022-09-20T18:59:20.707Z,0.97
2022-09-20T19:01:50.709Z,1.30
2022-09-20T19:04:59.069Z,1.20
2022-09-20T19:07:28.466Z,1.10
2022-09-20T19:10:08.516Z,1.70
2022-09-20T19:13:02.339Z,1.17
2022-09-20T19:15:50.660Z,1.23
2022-09-20T19:18:47.901Z,1.20
2022-09-20T19:21:27.971Z,1.13
2022-09-20T19:24:27.020Z,0.90
2022-09-20T19:26:53.996Z,1.90
2022-09-20T19:29:26.792Z,1.30
2022-09-20T19:31:57.504Z,1.17
2022-09-20T19:34:25.783Z,1.20
2022-09-20T19:37:18.561Z,1.10
2022-09-20T19:39:58.391Z,1.10
2022-09-20T19:42:47.739Z,1.07
2022-09-20T19:45:33.345Z,0.97
2022-09-20T19:48:28.274Z,1.30
2022-09-20T19:50:56.548Z,1.10
2022-09-20T19:53:28.168Z,1.07
2022-09-20T19:55:59.639Z,1.07
2022-09-20T19:58:26.785Z,1.10
2022-09-20T20:00:53.934Z,1.30
2022-09-20T20:03:23.627Z,1.03
2022-09-20T20:06:17.004Z,1.20
2022-09-20T20:08:59.420Z,1.40
2022-09-20T20:11:42.511Z,1.00
2022-09-20T20:14:21.340Z,1.20
2022-09-20T20:17:04.418Z,1.53
2022-09-20T20:19:34.162Z,1.30
2022-09-20T20:22:10.447Z,1.43
2022-09-20T20:24:53.714Z,1.20
2022-09-20T20:27:21.187Z,1.60
2022-09-20T20:29:49.272Z,1.43
2022-09-20T20:32:16.741Z,1.57
2022-09-20T20:34:43.590Z,1.63
2022-09-20T20:37:10.398Z,1.97
2022-09-20T20:39:37.166Z,1.37
2022-09-20T20:42:06.183Z,1.43
2022-09-20T20:44:37.170Z,1.70
2022-09-20T20:47:05.922Z,1.80
2022-09-20T20:49:33.264Z,1.60
2022-09-20T20:52:04.682Z,2.30
2022-09-20T20:54:32.710Z,1.30
2022-09-20T20:56:59.618Z,1.80
2022-09-20T20:59:26.871Z,1.80
2022-09-20T21:01:53.927Z,1.67
2022-09-20T21:04:21.655Z,1.90
2022-09-20T21:06:50.402Z,2.30
2022-09-20T21:09:17.278Z,2.00
2022-09-20T21:11:44.459Z,1.37
2022-09-20T21:14:12.787Z,1.87
2022-09-20T21:16:45.150Z,1.67
2022-09-20T21:19:15.128Z,1.70
2022-09-20T21:21:43.686Z,1.70
2022-09-20T21:24:12.920Z,2.10
2022-09-20T21:26:40.477Z,2.43
2022-09-20T21:29:10.954Z,2.10
2022-09-20T21:31:44.620Z,2.03
2022-09-20T21:34:14.113Z,1.80
2022-09-20T21:36:41.583Z,2.40
2022-09-20T21:39:08.829Z,2.57
2022-09-20T21:41:37.670Z,2.57
2022-09-20T21:44:06.540Z,2.50
2022-09-20T21:46:40.248Z,2.40
2022-09-20T21:49:09.093Z,3.07
2022-09-20T21:51:37.015Z,2.57
2022-09-20T21:54:04.545Z,2.90
2022-09-20T21:56:36.791Z,2.43
2022-09-20T21:59:05.268Z,2.30
2022-09-20T22:01:35.376Z,2.70
2022-09-20T22:04:08.163Z,2.47
2022-09-20T22:06:40.482Z,2.27
2022-09-20T22:09:13.273Z,2.27
2022-09-20T22:11:45.775Z,2.30
2022-09-20T22:14:15.281Z,2.17
2022-09-20T22:16:43.718Z,2.83
2022-09-20T22:19:12.818Z,2.40
2022-09-20T22:21:42.290Z,2.57
2022-09-20T22:24:10.806Z,2.73
2022-09-20T22:26:42.964Z,2.90
2022-09-20T22:29:10.152Z,2.70
2022-09-20T22:31:44.734Z,2.90
2022-09-20T22:34:15.269Z,2.33
2022-09-20T22:36:42.435Z,1.77
2022-09-20T22:39:11.393Z,2.07
2022-09-20T22:41:41.107Z,2.30
2022-09-20T22:44:08.763Z,2.27
2022-09-20T22:46:36.521Z,2.20
2022-09-20T22:49:08.573Z,2.47
2022-09-20T22:51:36.073Z,2.37
2022-09-20T22:54:08.922Z,2.40
2022-09-20T22:56:36.543Z,2.40
2022-09-20T22:59:15.551Z,2.33
2022-09-20T23:01:45.083Z,1.93
2022-09-20T23:04:14.744Z,2.40
2022-09-20T23:06:45.168Z,2.13
2022-09-20T23:09:14.010Z,2.37
2022-09-20T23:11:44.725Z,2.30
2022-09-20T23:14:13.789Z,1.90
2022-09-20T23:16:41.908Z,2.77
2022-09-20T23:19:10.091Z,2.10
2022-09-20T23:21:38.891Z,2.20
2022-09-20T23:24:11.776Z,1.87
2022-09-20T23:26:41.118Z,2.40
2022-09-20T23:29:13.593Z,2.00
2022-09-20T23:31:45.877Z,2.57
2022-09-20T23:34:14.821Z,2.10
2022-09-20T23:36:42.674Z,2.00
2022-09-20T23:39:10.579Z,1.87
2022-09-20T23:41:38.177Z,2.30
2022-09-20T23:44:06.728Z,2.07
2022-09-20T23:46:34.255Z,2.40
2022-09-20T23:49:01.833Z,2.10
2022-09-20T23:51:29.533Z,2.17
2022-09-20T23:53:56.625Z,2.17
2022-09-20T23:56:24.012Z,2.20
2022-09-20T23:58:51.338Z,2.00
